createdAt,value
2022-09-01T00:01:50.159Z,100003.56
2022-09-01T00:04:22.053Z,100004.09
2022-09-01T00:06:50.222Z,100004.94
2022-09-01T00:09:19.513Z,100009.56
2022-09-01T00:11:51.068Z,100005.91
2022-09-01T00:14:29.728Z,99999.78
2022-09-01T00:17:00.570Z,99998.91
2022-09-01T00:19:31.593Z,99988.63
2022-09-01T00:22:00.359Z,99993.19
2022-09-01T00:24:28.003Z,99995.44
2022-09-01T00:26:56.959Z,99993.66
2022-09-01T00:29:26.263Z,99992.84
2022-09-01T00:31:53.939Z,99992.09
2022-09-01T00:34:25.225Z,99990.34
2022-09-01T00:36:55.529Z,99991.19
2022-09-01T00:39:22.972Z,99991.19
2022-09-01T00:41:50.280Z,99988.91
2022-09-01T00:44:20.521Z,99999.78
2022-09-01T00:46:55.511Z,99995.34
2022-09-01T00:49:51.271Z,99995.69
2022-09-01T00:52:42.983Z,99991.63
2022-09-01T00:55:16.251Z,99989.91
2022-09-01T00:57:45.461Z,99983.56
2022-09-01T01:00:34.319Z,99984.56
2022-09-01T01:03:01.803Z,99972.91
2022-09-01T01:05:36.589Z,99980.59
2022-09-01T01:08:05.003Z,99975.63
2022-09-01T01:10:36.824Z,99981.63
2022-09-01T01:13:16.975Z,99972.25
2022-09-01T01:15:44.745Z,99969.31
2022-09-01T01:18:23.011Z,99968.44
2022-09-01T01:21:04.434Z,99969.88
2022-09-01T01:23:48.015Z,99971.72
2022-09-01T01:26:15.575Z,99967.19
2022-09-01T01:28:43.479Z,99970.22
2022-09-01T01:31:18.558Z,99974.78
2022-09-01T01:33:53.321Z,99974.75
2022-09-01T01:36:27.533Z,99979.66
2022-09-01T01:38:54.902Z,99984.97
2022-09-01T01:41:22.156Z,99989.25
2022-09-01T01:43:49.386Z,99980.66
2022-09-01T01:46:20.696Z,99977.72
2022-09-01T01:48:50.022Z,99977.63
2022-09-01T01:51:19.073Z,99979.06
2022-09-01T01:53:46.428Z,99989.06
2022-09-01T01:56:14.382Z,99991.94
2022-09-01T01:58:41.913Z,99992.91
2022-09-01T02:01:09.343Z,99995.38
2022-09-01T02:03:36.753Z,99996.97
2022-09-01T02:06:09.168Z,100007.03
2022-09-01T02:08:38.450Z,100007.59
2022-09-01T02:11:07.719Z,100006.69
2022-09-01T02:13:35.271Z,100017.66
2022-09-01T02:16:06.362Z,100019.56
2022-09-01T02:18:36.830Z,100019.72
2022-09-01T02:21:06.671Z,100018.94
2022-09-01T02:23:33.991Z,100025.16
2022-09-01T02:26:17.970Z,100027.75
2022-09-01T02:28:52.142Z,100031.00
2022-09-01T02:31:22.461Z,100036.56
2022-09-01T02:33:50.373Z,100032.34
2022-09-01T02:36:18.654Z,100034.19
2022-09-01T02:38:53.396Z,100034.75
2022-09-01T02:41:22.729Z,100035.44
2022-09-01T02:43:50.886Z,100040.72
2022-09-01T02:46:18.794Z,100043.47
2022-09-01T02:48:46.429Z,100049.75
2022-09-01T02:51:17.071Z,100050.91
2022-09-01T02:53:48.869Z,100050.53
2022-09-01T02:56:16.279Z,100041.25
2022-09-01T02:58:45.822Z,100043.50
2022-09-01T03:01:26.155Z,100033.97
2022-09-01T03:03:58.753Z,100037.50
2022-09-01T03:06:26.854Z,100036.69
2022-09-01T03:08:56.891Z,100034.69
2022-09-01T03:11:24.413Z,100033.09
2022-09-01T03:13:52.925Z,100025.44
2022-09-01T03:16:21.167Z,100020.88
2022-09-01T03:18:48.802Z,100022.69
2022-09-01T03:21:16.343Z,100016.31
2022-09-01T03:23:48.188Z,100025.75
2022-09-01T03:26:16.972Z,100020.97
2022-09-01T03:28:45.198Z,100023.06
2022-09-01T03:31:13.322Z,100011.03
2022-09-01T03:33:41.193Z,100012.56
2022-09-01T03:36:15.127Z,100011.50
2022-09-01T03:38:43.016Z,100013.66
2022-09-01T03:41:10.501Z,100012.78
2022-09-01T03:43:37.886Z,100014.81
2022-09-01T03:46:18.146Z,100007.59
2022-09-01T03:48:56.540Z,100007.72
2022-09-01T03:51:25.447Z,100010.09
2022-09-01T03:53:54.492Z,100007.88
2022-09-01T03:56:25.830Z,100010.66
2022-09-01T03:58:56.790Z,100013.59
2022-09-01T04:01:29.187Z,100016.06
2022-09-01T04:03:57.187Z,100016.59
2022-09-01T04:06:28.061Z,100017.44
2022-09-01T04:08:56.033Z,100019.22
2022-09-01T04:11:30.739Z,100018.88
2022-09-01T04:13:59.334Z,100023.34
2022-09-01T04:16:30.430Z,100023.16
2022-09-01T04:18:59.531Z,100035.53
2022-09-01T04:21:29.847Z,100033.41
2022-09-01T04:24:02.156Z,100041.25
2022-09-01T04:26:29.643Z,100038.34
2022-09-01T04:28:59.932Z,100040.72
2022-09-01T04:31:30.398Z,100037.19
2022-09-01T04:34:01.046Z,100042.97
2022-09-01T04:36:34.510Z,100049.53
2022-09-01T04:39:04.124Z,100050.25
2022-09-01T04:41:33.862Z,100053.84
2022-09-01T04:44:02.960Z,100052.47
2022-09-01T04:46:33.022Z,100055.78
2022-09-01T04:49:04.339Z,100061.31
2022-09-01T04:51:32.599Z,100059.53
2022-09-01T04:54:02.723Z,100066.94
2022-09-01T04:56:32.404Z,100058.63
2022-09-01T04:59:03.785Z,100067.28
2022-09-01T05:01:31.228Z,100059.59
2022-09-01T05:04:01.593Z,100054.38
2022-09-01T05:06:32.045Z,100056.75
2022-09-01T05:08:59.856Z,100053.34
2022-09-01T05:11:30.427Z,100055.34
2022-09-01T05:13:58.467Z,100055.75
2022-09-01T05:16:26.667Z,100052.25
2022-09-01T05:18:57.479Z,100054.19
2022-09-01T05:21:25.352Z,100056.56
2022-09-01T05:23:55.807Z,100059.84
2022-09-01T05:26:31.505Z,100059.66
2022-09-01T05:29:02.456Z,100058.50
2022-09-01T05:31:31.437Z,100057.00
2022-09-01T05:33:59.475Z,100044.66
2022-09-01T05:36:30.895Z,100059.13
2022-09-01T05:38:58.554Z,100054.69
2022-09-01T05:41:26.626Z,100049.31
2022-09-01T05:44:00.036Z,100051.78
2022-09-01T05:46:28.475Z,100051.66
2022-09-01T05:48:57.140Z,100053.31
2022-09-01T05:51:43.922Z,100051.06
2022-09-01T05:54:12.964Z,100049.53
2022-09-01T05:56:44.790Z,100046.19
2022-09-01T05:59:29.762Z,100045.97
2022-09-01T06:01:58.075Z,100047.41
2022-09-01T06:04:26.386Z,100044.09
2022-09-01T06:07:06.580Z,100047.31
2022-09-01T06:09:43.996Z,100041.03
2022-09-01T06:12:23.490Z,100036.44
2022-09-01T06:14:55.442Z,100054.47
2022-09-01T06:17:26.695Z,100046.16
2022-09-01T06:20:01.293Z,100052.03
2022-09-01T06:22:37.616Z,100044.47
2022-09-01T06:25:09.910Z,100046.81
2022-09-01T06:27:44.116Z,100037.44
2022-09-01T06:30:22.569Z,100041.03
2022-09-01T06:32:56.871Z,100041.56
2022-09-01T06:35:48.823Z,100036.94
2022-09-01T06:38:19.113Z,100033.56
2022-09-01T06:40:51.114Z,100032.16
2022-09-01T06:43:22.407Z,100027.78
2022-09-01T06:45:53.395Z,100034.16
2022-09-01T06:48:26.896Z,100029.13
2022-09-01T06:53:52.471Z,100042.41
2022-09-01T06:56:20.515Z,100039.31
2022-09-01T06:58:48.139Z,100045.09
2022-09-01T07:01:19.983Z,100043.34
2022-09-01T07:03:52.533Z,100038.34
2022-09-01T07:09:20.126Z,100044.44
2022-09-01T07:17:34.591Z,100045.78
2022-09-01T07:23:04.414Z,100049.69
2022-09-01T07:28:36.882Z,100058.13
2022-09-01T07:43:08.013Z,100068.41
2022-09-01T07:45:47.708Z,100071.88
2022-09-01T07:48:36.048Z,100069.78
2022-09-01T07:53:58.414Z,100073.50
2022-09-01T07:56:29.906Z,100070.63
2022-09-01T07:59:05.053Z,100063.28
2022-09-01T08:01:35.771Z,100073.53
2022-09-01T08:04:06.244Z,100066.56
2022-09-01T08:06:38.547Z,100077.38
2022-09-01T08:09:06.857Z,100063.97
2022-09-01T08:12:01.686Z,100068.09
2022-09-01T08:14:36.374Z,100065.06
2022-09-01T08:19:58.129Z,100068.03
2022-09-01T08:22:26.316Z,100066.97
2022-09-01T08:24:57.826Z,100064.38
2022-09-01T08:27:32.589Z,100072.50
2022-09-01T08:30:04.821Z,100077.44
2022-09-01T08:32:32.664Z,100072.69
2022-09-01T08:35:04.013Z,100063.97
2022-09-01T08:37:34.447Z,100060.56
2022-09-01T08:40:03.888Z,100065.53
2022-09-01T08:43:11.940Z,100063.56
2022-09-01T08:45:51.936Z,100055.81
2022-09-01T08:51:44.058Z,100044.97
2022-09-01T08:54:29.824Z,100047.41
2022-09-01T08:57:05.957Z,100049.53
2022-09-01T08:59:39.507Z,100043.66
2022-09-01T09:02:10.192Z,100037.84
2022-09-01T09:04:46.681Z,100034.81
2022-09-01T09:07:24.462Z,100028.72
2022-09-01T09:10:03.971Z,100035.75
2022-09-01T09:12:52.757Z,100028.28
2022-09-01T09:15:38.317Z,100028.59
2022-09-01T09:18:39.435Z,100030.78
2022-09-01T09:21:22.948Z,100026.50
2022-09-01T09:24:09.869Z,100024.00
2022-09-01T09:26:44.906Z,100031.22
2022-09-01T09:29:18.588Z,100021.19
2022-09-01T09:32:06.651Z,100019.69
2022-09-01T09:34:37.383Z,100023.94
2022-09-01T09:37:28.747Z,100015.91
2022-09-01T09:40:09.928Z,100008.75
2022-09-01T09:42:43.851Z,100022.22
2022-09-01T09:45:26.021Z,100021.97
2022-09-01T09:47:55.880Z,100008.22
2022-09-01T09:50:26.578Z,100014.75
2022-09-01T09:53:16.185Z,100018.56
2022-09-01T09:55:56.877Z,100016.13
2022-09-01T09:58:36.302Z,100014.38
2022-09-01T10:01:28.896Z,100015.69
2022-09-01T10:04:04.951Z,100004.06
2022-09-01T10:06:47.815Z,100000.84
2022-09-01T10:09:25.116Z,99997.44
2022-09-01T10:11:57.273Z,99994.78
2022-09-01T10:14:53.187Z,99994.41
2022-09-01T10:17:35.670Z,99992.16
2022-09-01T10:20:17.643Z,99997.81
2022-09-01T10:22:45.912Z,100002.81
2022-09-01T10:25:23.473Z,99987.66
2022-09-01T10:28:01.855Z,99989.91
2022-09-01T10:30:30.632Z,99992.47
2022-09-01T10:33:11.014Z,99990.13
2022-09-01T10:35:49.658Z,99989.72
2022-09-01T10:38:29.198Z,99980.25
2022-09-01T10:40:59.762Z,99990.03
2022-09-01T10:43:37.891Z,99990.09
2022-09-01T10:46:41.091Z,99976.03
2022-09-01T10:49:29.797Z,99981.91
2022-09-01T10:52:03.332Z,99978.69
2022-09-01T10:54:51.042Z,99978.81
2022-09-01T10:57:41.881Z,99976.38
2022-09-01T11:00:36.974Z,99981.00
2022-09-01T11:06:18.962Z,99972.38
2022-09-01T11:09:00.521Z,99969.88
2022-09-01T11:11:48.948Z,99967.75
2022-09-01T11:14:25.170Z,99966.53
2022-09-01T11:17:27.747Z,99957.81
2022-09-01T11:20:01.016Z,99948.47
2022-09-01T11:22:41.280Z,99950.94
2022-09-01T11:25:40.287Z,99950.25
2022-09-01T11:28:28.662Z,99948.84
2022-09-01T11:31:10.779Z,99944.94
2022-09-01T11:33:56.346Z,99936.41
2022-09-01T11:36:43.108Z,99929.22
2022-09-01T11:39:13.886Z,99924.09
2022-09-01T11:42:10.842Z,99926.94
2022-09-01T11:44:42.678Z,99928.66
2022-09-01T11:47:29.043Z,99921.97
2022-09-01T11:50:04.187Z,99917.63
2022-09-01T11:52:42.371Z,99905.28
2022-09-01T11:55:13.724Z,99923.16
2022-09-01T11:57:44.352Z,99921.53
2022-09-01T12:00:14.545Z,99916.00
2022-09-01T12:02:48.202Z,99911.25
2022-09-01T12:05:31.458Z,99914.06
2022-09-01T12:08:13.088Z,99914.91
2022-09-01T12:10:45.624Z,99916.06
2022-09-01T12:13:22.397Z,99907.41
2022-09-01T12:16:18.333Z,99913.69
2022-09-01T12:18:53.511Z,99908.31
2022-09-01T12:21:39.777Z,99894.19
2022-09-01T12:24:36.510Z,99889.09
2022-09-01T12:27:13.791Z,99892.97
2022-09-01T12:29:49.360Z,99883.97
2022-09-01T12:32:19.905Z,99879.75
2022-09-01T12:35:11.488Z,99885.69
2022-09-01T12:37:42.616Z,99882.19
2022-09-01T12:40:35.456Z,99881.81
2022-09-01T12:43:05.637Z,99889.97
2022-09-01T12:45:51.100Z,99893.84
2022-09-01T12:48:37.931Z,99895.81
2022-09-01T12:51:27.998Z,99900.13
2022-09-01T12:54:04.579Z,99886.47
2022-09-01T12:56:36.664Z,99879.53
2022-09-01T12:59:29.923Z,99884.63
2022-09-01T13:02:44.781Z,99881.41
2022-09-01T13:05:34.600Z,99879.41
2022-09-01T13:08:23.529Z,99880.56
2022-09-01T13:11:14.192Z,99882.91
2022-09-01T13:13:51.146Z,99876.25
2022-09-01T13:16:25.245Z,99866.81
2022-09-01T13:19:26.588Z,99871.47
2022-09-01T13:21:52.824Z,99869.91
2022-09-01T13:24:27.890Z,99874.63
2022-09-01T13:29:55.541Z,99865.22
2022-09-01T13:32:26.696Z,99871.47
2022-09-01T13:34:55.091Z,99871.53
2022-09-01T13:37:25.320Z,99871.91
2022-09-01T13:39:56.005Z,99873.44
2022-09-01T13:42:28.542Z,99866.75
2022-09-01T13:45:02.946Z,99867.56
2022-09-01T13:47:35.307Z,99870.69
2022-09-01T13:50:28.758Z,99878.50
2022-09-01T13:53:21.481Z,99875.38
2022-09-01T13:55:51.740Z,99877.66
2022-09-01T13:58:28.168Z,99873.75
2022-09-01T14:01:01.570Z,99874.53
2022-09-01T14:03:35.230Z,99874.91
2022-09-01T14:06:06.892Z,99876.81
2022-09-01T14:08:39.270Z,99877.22
2022-09-01T14:11:09.039Z,99871.31
2022-09-01T14:13:45.863Z,99862.72
2022-09-01T14:16:20.150Z,99872.91
2022-09-01T14:18:51.001Z,99870.59
2022-09-01T14:21:24.530Z,99864.69
2022-09-01T14:23:53.153Z,99864.75
2022-09-01T14:26:23.349Z,99853.38
2022-09-01T14:28:58.737Z,99859.63
2022-09-01T14:31:33.546Z,99861.59
2022-09-01T14:34:05.370Z,99865.09
2022-09-01T14:36:36.605Z,99856.53
2022-09-01T14:39:06.150Z,99860.41
2022-09-01T14:41:36.599Z,99863.53
2022-09-01T14:44:06.965Z,99867.44
2022-09-01T14:46:35.456Z,99863.13
2022-09-01T14:49:04.211Z,99863.09
2022-09-01T14:54:31.156Z,99862.72
2022-09-01T15:00:04.962Z,99854.91
2022-09-01T15:02:32.978Z,99857.25
2022-09-01T15:05:09.461Z,99851.00
2022-09-01T15:07:42.015Z,99855.69
2022-09-01T15:10:15.815Z,99858.78
2022-09-01T15:13:10.176Z,99861.59
2022-09-01T15:16:00.267Z,99861.22
2022-09-01T15:18:53.296Z,99856.47
2022-09-01T15:21:45.530Z,99849.84
2022-09-01T15:24:37.037Z,99850.59
2022-09-01T15:27:14.507Z,99845.09
2022-09-01T15:29:45.470Z,99840.03
2022-09-01T15:32:28.045Z,99840.00
2022-09-01T15:35:08.004Z,99837.31
2022-09-01T15:37:43.220Z,99840.41
2022-09-01T15:40:11.101Z,99843.88
2022-09-01T15:42:39.234Z,99852.03
2022-09-01T15:45:15.199Z,99846.19
2022-09-01T15:47:46.114Z,99845.00
2022-09-01T15:50:27.425Z,99850.47
2022-09-01T15:52:58.725Z,99839.50
2022-09-01T15:55:37.236Z,99843.78
2022-09-01T15:58:09.550Z,99843.44
2022-09-01T16:00:43.857Z,99844.59
2022-09-01T16:03:15.477Z,99851.59
2022-09-01T16:05:49.584Z,99841.75
2022-09-01T16:08:22.729Z,99840.22
2022-09-01T16:10:57.121Z,99849.88
2022-09-01T16:13:24.816Z,99849.09
2022-09-01T16:16:11.328Z,99842.84
2022-09-01T16:18:50.496Z,99838.09
2022-09-01T16:21:39.089Z,99838.09
2022-09-01T16:24:17.050Z,99840.00
2022-09-01T16:26:48.088Z,99838.38
2022-09-01T16:29:53.453Z,99842.63
2022-09-01T16:32:21.982Z,99838.56
2022-09-01T16:34:53.720Z,99846.88
2022-09-01T16:37:43.057Z,99841.03
2022-09-01T16:40:32.515Z,99848.50
2022-09-01T16:43:15.710Z,99857.53
2022-09-01T16:46:01.167Z,99860.69
2022-09-01T16:48:38.028Z,99864.88
2022-09-01T16:51:37.110Z,99857.22
2022-09-01T16:54:52.596Z,99869.09
2022-09-01T16:57:38.559Z,99870.59
2022-09-01T17:00:15.527Z,99870.50
2022-09-01T17:03:17.341Z,99871.44
2022-09-01T17:06:02.338Z,99870.56
2022-09-01T17:08:41.299Z,99867.41
2022-09-01T17:11:17.760Z,99860.75
2022-09-01T17:13:50.620Z,99873.63
2022-09-01T17:16:48.457Z,99867.34
2022-09-01T17:19:19.168Z,99870.56
2022-09-01T17:22:11.076Z,99868.84
2022-09-01T17:24:46.294Z,99867.94
2022-09-01T17:27:31.930Z,99874.16
2022-09-01T17:30:02.063Z,99882.69
2022-09-01T17:32:32.353Z,99876.53
2022-09-01T17:35:18.667Z,99879.66
2022-09-01T17:38:11.308Z,99886.81
2022-09-01T17:41:12.381Z,99880.66
2022-09-01T17:43:46.560Z,99883.94
2022-09-01T17:46:36.100Z,99885.25
2022-09-01T17:49:47.721Z,99884.19
2022-09-01T17:52:35.409Z,99880.94
2022-09-01T17:55:16.276Z,99885.16
2022-09-01T17:57:49.327Z,99891.31
2022-09-01T18:00:29.929Z,99892.53
2022-09-01T18:03:15.582Z,99895.59
2022-09-01T18:06:08.869Z,99905.56
2022-09-01T18:08:53.156Z,99904.88
2022-09-01T18:11:51.567Z,99912.56
2022-09-01T18:14:34.130Z,99911.75
2022-09-01T18:17:31.950Z,99916.16
2022-09-01T18:20:11.074Z,99921.16
2022-09-01T18:22:51.084Z,99924.91
2022-09-01T18:25:29.117Z,99934.25
2022-09-01T18:27:57.363Z,99927.31
2022-09-01T18:30:51.999Z,99927.34
2022-09-01T18:33:40.864Z,99926.75
2022-09-01T18:36:44.676Z,99934.75
2022-09-01T18:39:20.456Z,99937.91
2022-09-01T18:42:18.502Z,99940.22
2022-09-01T18:45:28.038Z,99948.84
2022-09-01T18:48:43.074Z,99945.50
2022-09-01T18:51:35.658Z,99947.81
2022-09-01T18:54:29.822Z,99944.16
2022-09-01T18:57:02.384Z,99936.75
2022-09-01T18:59:52.067Z,99950.72
2022-09-01T19:02:44.389Z,99933.81
2022-09-01T19:05:38.208Z,99938.34
2022-09-01T19:08:20.912Z,99946.09
2022-09-01T19:10:58.205Z,99939.19
2022-09-01T19:13:43.991Z,99951.25
2022-09-01T19:16:45.699Z,99948.00
2022-09-01T19:19:40.707Z,99947.69
2022-09-01T19:22:14.855Z,99957.22
2022-09-01T19:24:50.765Z,99958.81
2022-09-01T19:27:31.860Z,99975.88
2022-09-01T19:30:05.295Z,99986.78
2022-09-01T19:32:35.384Z,99990.03
2022-09-01T19:35:13.101Z,99990.78
2022-09-01T19:37:41.111Z,99993.31
2022-09-01T19:40:09.524Z,99986.16
2022-09-01T19:42:39.621Z,99986.63
2022-09-01T19:45:21.708Z,99988.09
2022-09-01T19:47:55.078Z,99987.75
2022-09-01T19:50:29.721Z,99984.28
2022-09-01T19:53:05.435Z,99995.75
2022-09-01T19:55:41.977Z,99989.19
2022-09-01T19:58:16.623Z,99997.16
2022-09-01T20:00:51.538Z,99991.28
2022-09-01T20:03:36.457Z,100000.28
2022-09-01T20:06:17.390Z,99993.81
2022-09-01T20:09:09.820Z,99993.25
2022-09-01T20:11:58.853Z,99992.28
2022-09-01T20:14:52.774Z,99994.13
2022-09-01T20:17:37.966Z,99994.91
2022-09-01T20:20:13.826Z,99997.22
2022-09-01T20:22:57.810Z,99998.25
2022-09-01T20:26:14.672Z,99994.22
2022-09-01T20:28:54.391Z,99992.94
2022-09-01T20:31:34.305Z,99995.75
2022-09-01T20:34:32.862Z,99992.59
2022-09-01T20:37:12.307Z,100001.25
2022-09-01T20:39:47.513Z,99997.69
2022-09-01T20:42:42.821Z,99997.69
2022-09-01T20:45:19.679Z,100011.00
2022-09-01T20:48:00.115Z,100003.25
2022-09-01T20:50:44.144Z,100006.69
2022-09-01T20:53:23.245Z,100007.31
2022-09-01T20:56:13.436Z,100016.44
2022-09-01T20:59:06.289Z,100014.41
2022-09-01T21:01:47.175Z,100011.19
2022-09-01T21:04:28.691Z,100012.31
2022-09-01T21:07:20.267Z,100004.94
2022-09-01T21:10:02.760Z,100001.06
2022-09-01T21:12:41.947Z,100003.00
2022-09-01T21:15:29.902Z,100008.97
2022-09-01T21:18:15.948Z,100012.47
2022-09-01T21:21:08.045Z,100002.81
2022-09-01T21:23:38.251Z,100008.56
2022-09-01T21:26:08.923Z,100001.97
2022-09-01T21:28:40.096Z,100005.19
2022-09-01T21:31:23.496Z,100004.69
2022-09-01T21:33:57.235Z,100013.22
2022-09-01T21:36:27.377Z,100006.97
2022-09-01T21:38:57.998Z,100003.63
2022-09-01T21:41:26.439Z,100004.97
2022-09-01T21:43:53.885Z,100016.16
2022-09-01T21:46:28.178Z,100024.00
2022-09-01T21:49:02.321Z,100017.00
2022-09-01T21:51:33.620Z,100017.88
2022-09-01T21:54:04.926Z,100012.75
2022-09-01T21:56:36.730Z,100017.63
2022-09-01T21:59:06.570Z,100020.44
2022-09-01T22:01:39.498Z,100014.63
2022-09-01T22:04:10.873Z,100018.81
2022-09-01T22:06:49.439Z,100008.09
2022-09-01T22:09:20.433Z,100016.56
2022-09-01T22:11:51.215Z,100014.53
2022-09-01T22:14:24.977Z,100014.13
2022-09-01T22:16:55.838Z,100009.03
2022-09-01T22:19:27.085Z,100007.88
2022-09-01T22:21:55.229Z,100012.03
2022-09-01T22:24:26.711Z,100006.13
2022-09-01T22:26:57.284Z,100000.75
2022-09-01T22:29:24.906Z,100008.06
2022-09-01T22:31:55.419Z,100010.00
2022-09-01T22:34:27.161Z,99995.50
2022-09-01T22:36:57.958Z,99997.88
2022-09-01T22:39:28.735Z,99996.72
2022-09-01T22:41:58.879Z,99992.84
2022-09-01T22:44:30.149Z,99987.50
2022-09-01T22:47:00.495Z,99981.09
2022-09-01T22:49:33.857Z,99978.53
2022-09-01T22:52:01.897Z,99977.75
2022-09-01T22:54:35.419Z,99974.22
2022-09-01T22:57:09.414Z,99972.13
2022-09-01T22:59:41.741Z,99973.78
2022-09-01T23:02:10.621Z,99973.09
2022-09-01T23:04:39.337Z,99975.50
2022-09-01T23:07:11.217Z,99963.53
2022-09-01T23:09:41.703Z,99964.25
2022-09-01T23:12:13.744Z,99958.28
2022-09-01T23:14:45.117Z,99955.97
2022-09-01T23:17:24.584Z,99954.16
2022-09-01T23:19:59.165Z,99954.16
2022-09-01T23:22:29.496Z,99958.63
2022-09-01T23:25:02.636Z,99954.47
2022-09-01T23:27:33.548Z,99949.03
2022-09-01T23:30:00.950Z,99955.66
2022-09-01T23:32:31.762Z,99961.53
2022-09-01T23:35:06.116Z,99955.66
2022-09-01T23:37:36.366Z,99948.16
2022-09-01T23:40:06.097Z,99950.03
2022-09-01T23:42:33.966Z,99950.38
2022-09-01T23:45:12.505Z,99953.44
2022-09-01T23:47:41.068Z,99941.69
2022-09-01T23:50:12.971Z,99951.06
2022-09-01T23:52:43.890Z,99951.84
2022-09-01T23:55:17.834Z,99952.91
2022-09-01T23:57:49.171Z,99959.22
